sensor_id;sensor_type;location;lat;lon;timestamp;P1;durP1;ratioP1;P2;durP2;ratioP2
7983;SDS011;4037;47.980;10.172;2022-12-05T00:00:58;23.53;;;12.33;;
7983;SDS011;4037;47.980;10.172;2022-12-05T00:03:24;18.57;;;11.93;;
7983;SDS011;4037;47.980;10.172;2022-12-05T00:05:51;21.13;;;13.13;;
7983;SDS011;4037;47.980;10.172;2022-12-05T00:08:17;19.07;;;12.03;;
7983;SDS011;4037;47.980;10.172;2022-12-05T00:10:43;20.03;;;11.70;;
7983;SDS011;4037;47.980;10.172;2022-12-05T00:13:09;22.53;;;12.40;;
7983;SDS011;4037;47.980;10.172;2022-12-05T00:15:36;23.17;;;12.63;;
7983;SDS011;4037;47.980;10.172;2022-12-05T00:18:02;19.33;;;11.77;;
7983;SDS011;4037;47.980;10.172;2022-12-05T00:20:28;20.80;;;11.77;;
7983;SDS011;4037;47.980;10.172;2022-12-05T00:22:54;23.07;;;13.03;;
7983;SDS011;4037;47.980;10.172;2022-12-05T00:25:20;20.93;;;13.33;;
7983;SDS011;4037;47.980;10.172;2022-12-05T00:27:46;23.03;;;11.80;;
7983;SDS011;4037;47.980;10.172;2022-12-05T00:30:12;26.23;;;14.50;;
7983;SDS011;4037;47.980;10.172;2022-12-05T00:32:38;18.83;;;11.07;;
7983;SDS011;4037;47.980;10.172;2022-12-05T00:35:04;23.27;;;12.50;;
7983;SDS011;4037;47.980;10.172;2022-12-05T00:37:30;24.47;;;13.10;;
7983;SDS011;4037;47.980;10.172;2022-12-05T00:39:56;23.90;;;14.00;;
7983;SDS011;4037;47.980;10.172;2022-12-05T00:42:22;26.53;;;13.93;;
7983;SDS011;4037;47.980;10.172;2022-12-05T00:44:48;22.73;;;14.10;;
7983;SDS011;4037;47.980;10.172;2022-12-05T00:47:14;26.77;;;14.30;;
7983;SDS011;4037;47.980;10.172;2022-12-05T00:49:40;22.77;;;13.53;;
7983;SDS011;4037;47.980;10.172;2022-12-05T00:52:06;26.53;;;14.97;;
7983;SDS011;4037;47.980;10.172;2022-12-05T00:54:33;25.63;;;13.60;;
7983;SDS011;4037;47.980;10.172;2022-12-05T00:56:59;22.77;;;13.60;;
7983;SDS011;4037;47.980;10.172;2022-12-05T00:59:25;27.23;;;15.43;;
7983;SDS011;4037;47.980;10.172;2022-12-05T01:01:51;27.13;;;13.73;;
7983;SDS011;4037;47.980;10.172;2022-12-05T01:04:21;22.60;;;14.17;;
7983;SDS011;4037;47.980;10.172;2022-12-05T01:06:47;24.13;;;13.23;;
7983;SDS011;4037;47.980;10.172;2022-12-05T01:09:14;27.10;;;13.53;;
7983;SDS011;4037;47.980;10.172;2022-12-05T01:11:41;23.97;;;14.17;;
7983;SDS011;4037;47.980;10.172;2022-12-05T01:14:11;27.67;;;14.90;;
7983;SDS011;4037;47.980;10.172;2022-12-05T01:16:38;25.20;;;14.60;;
7983;SDS011;4037;47.980;10.172;2022-12-05T01:19:06;25.37;;;14.40;;
7983;SDS011;4037;47.980;10.172;2022-12-05T01:21:32;23.73;;;14.67;;
7983;SDS011;4037;47.980;10.172;2022-12-05T01:23:58;28.87;;;15.47;;
7983;SDS011;4037;47.980;10.172;2022-12-05T01:26:24;24.93;;;14.77;;
7983;SDS011;4037;47.980;10.172;2022-12-05T01:28:50;26.37;;;15.73;;
7983;SDS011;4037;47.980;10.172;2022-12-05T01:31:21;28.97;;;15.33;;
7983;SDS011;4037;47.980;10.172;2022-12-05T01:33:47;32.83;;;15.07;;
7983;SDS011;4037;47.980;10.172;2022-12-05T01:36:13;31.13;;;16.20;;
7983;SDS011;4037;47.980;10.172;2022-12-05T01:38:40;28.13;;;16.07;;
7983;SDS011;4037;47.980;10.172;2022-12-05T01:41:07;25.90;;;14.27;;
7983;SDS011;4037;47.980;10.172;2022-12-05T01:43:51;30.67;;;15.70;;
7983;SDS011;4037;47.980;10.172;2022-12-05T01:46:17;27.77;;;15.43;;
7983;SDS011;4037;47.980;10.172;2022-12-05T01:48:43;31.23;;;16.33;;
7983;SDS011;4037;47.980;10.172;2022-12-05T01:51:09;28.50;;;15.13;;
7983;SDS011;4037;47.980;10.172;2022-12-05T01:53:35;27.27;;;15.43;;
7983;SDS011;4037;47.980;10.172;2022-12-05T01:56:02;26.60;;;15.20;;
7983;SDS011;4037;47.980;10.172;2022-12-05T01:58:30;27.20;;;14.63;;
7983;SDS011;4037;47.980;10.172;2022-12-05T02:00:57;26.33;;;15.67;;
7983;SDS011;4037;47.980;10.172;2022-12-05T02:03:23;26.40;;;15.43;;
7983;SDS011;4037;47.980;10.172;2022-12-05T02:05:50;25.43;;;15.13;;
7983;SDS011;4037;47.980;10.172;2022-12-05T02:08:17;30.37;;;14.23;;
7983;SDS011;4037;47.980;10.172;2022-12-05T02:10:50;26.10;;;14.40;;
7983;SDS011;4037;47.980;10.172;2022-12-05T02:13:25;23.07;;;14.03;;
7983;SDS011;4037;47.980;10.172;2022-12-05T02:34:01;22.83;;;13.97;;
7983;SDS011;4037;47.980;10.172;2022-12-05T02:36:38;23.17;;;12.17;;
7983;SDS011;4037;47.980;10.172;2022-12-05T02:41:32;24.60;;;13.77;;
7983;SDS011;4037;47.980;10.172;2022-12-05T02:44:07;23.00;;;12.60;;
7983;SDS011;4037;47.980;10.172;2022-12-05T02:46:35;23.97;;;12.60;;
7983;SDS011;4037;47.980;10.172;2022-12-05T02:49:04;26.40;;;13.27;;
7983;SDS011;4037;47.980;10.172;2022-12-05T02:51:33;22.63;;;12.37;;
7983;SDS011;4037;47.980;10.172;2022-12-05T02:54:01;22.37;;;12.97;;
7983;SDS011;4037;47.980;10.172;2022-12-05T02:56:28;22.07;;;11.97;;
7983;SDS011;4037;47.980;10.172;2022-12-05T02:58:56;26.40;;;13.40;;
7983;SDS011;4037;47.980;10.172;2022-12-05T03:01:26;23.40;;;13.20;;
7983;SDS011;4037;47.980;10.172;2022-12-05T03:03:54;23.73;;;13.40;;
7983;SDS011;4037;47.980;10.172;2022-12-05T03:07:03;24.93;;;13.80;;
7983;SDS011;4037;47.980;10.172;2022-12-05T03:09:14;27.50;;;13.73;;
7983;SDS011;4037;47.980;10.172;2022-12-05T03:12:15;26.20;;;14.90;;
7983;SDS011;4037;47.980;10.172;2022-12-05T03:14:35;27.13;;;15.13;;
7983;SDS011;4037;47.980;10.172;2022-12-05T03:17:03;26.87;;;13.97;;
7983;SDS011;4037;47.980;10.172;2022-12-05T03:19:33;29.33;;;15.43;;
7983;SDS011;4037;47.980;10.172;2022-12-05T03:22:09;33.87;;;16.33;;
7983;SDS011;4037;47.980;10.172;2022-12-05T03:24:37;27.53;;;16.07;;
7983;SDS011;4037;47.980;10.172;2022-12-05T03:29:46;25.93;;;15.80;;
7983;SDS011;4037;47.980;10.172;2022-12-05T03:32:16;26.00;;;14.73;;
7983;SDS011;4037;47.980;10.172;2022-12-05T03:45:30;27.87;;;15.90;;
7983;SDS011;4037;47.980;10.172;2022-12-05T03:48:07;27.37;;;14.47;;
7983;SDS011;4037;47.980;10.172;2022-12-05T03:50:36;28.00;;;16.13;;
7983;SDS011;4037;47.980;10.172;2022-12-05T03:53:05;25.93;;;15.43;;
7983;SDS011;4037;47.980;10.172;2022-12-05T03:55:34;25.23;;;14.60;;
7983;SDS011;4037;47.980;10.172;2022-12-05T03:58:03;29.20;;;16.60;;
7983;SDS011;4037;47.980;10.172;2022-12-05T04:00:31;33.13;;;18.73;;
7983;SDS011;4037;47.980;10.172;2022-12-05T04:05:51;28.23;;;17.07;;
7983;SDS011;4037;47.980;10.172;2022-12-05T04:10:50;29.70;;;15.80;;
7983;SDS011;4037;47.980;10.172;2022-12-05T04:13:22;24.33;;;14.50;;
7983;SDS011;4037;47.980;10.172;2022-12-05T04:15:56;24.80;;;15.00;;
7983;SDS011;4037;47.980;10.172;2022-12-05T04:18:44;19.60;;;14.43;;
7983;SDS011;4037;47.980;10.172;2022-12-05T04:21:11;21.27;;;13.37;;
7983;SDS011;4037;47.980;10.172;2022-12-05T04:23:57;22.40;;;13.80;;
7983;SDS011;4037;47.980;10.172;2022-12-05T04:26:43;23.57;;;14.23;;
7983;SDS011;4037;47.980;10.172;2022-12-05T04:29:15;21.70;;;13.60;;
7983;SDS011;4037;47.980;10.172;2022-12-05T04:31:43;19.77;;;13.23;;
7983;SDS011;4037;47.980;10.172;2022-12-05T04:34:11;22.20;;;13.83;;
7983;SDS011;4037;47.980;10.172;2022-12-05T04:39:18;25.50;;;14.20;;
7983;SDS011;4037;47.980;10.172;2022-12-05T04:41:47;19.07;;;12.63;;
7983;SDS011;4037;47.980;10.172;2022-12-05T04:44:15;20.47;;;13.00;;
7983;SDS011;4037;47.980;10.172;2022-12-05T04:46:42;21.67;;;13.40;;
7983;SDS011;4037;47.980;10.172;2022-12-05T04:49:10;17.77;;;12.20;;
7983;SDS011;4037;47.980;10.172;2022-12-05T04:51:37;19.70;;;12.37;;
7983;SDS011;4037;47.980;10.172;2022-12-05T04:54:07;19.47;;;13.23;;
7983;SDS011;4037;47.980;10.172;2022-12-05T04:56:36;20.00;;;12.67;;
7983;SDS011;4037;47.980;10.172;2022-12-05T04:59:03;20.43;;;13.27;;
7983;SDS011;4037;47.980;10.172;2022-12-05T05:01:30;17.27;;;12.40;;
7983;SDS011;4037;47.980;10.172;2022-12-05T05:04:32;20.50;;;12.80;;
7983;SDS011;4037;47.980;10.172;2022-12-05T05:06:50;17.93;;;12.37;;
7983;SDS011;4037;47.980;10.172;2022-12-05T05:09:16;17.07;;;11.93;;
7983;SDS011;4037;47.980;10.172;2022-12-05T05:11:42;19.40;;;11.93;;
7983;SDS011;4037;47.980;10.172;2022-12-05T05:14:08;20.43;;;12.93;;
7983;SDS011;4037;47.980;10.172;2022-12-05T05:16:35;20.33;;;13.37;;
7983;SDS011;4037;47.980;10.172;2022-12-05T05:19:02;19.03;;;12.57;;
7983;SDS011;4037;47.980;10.172;2022-12-05T05:21:29;20.70;;;11.77;;
7983;SDS011;4037;47.980;10.172;2022-12-05T05:23:56;17.97;;;12.50;;
7983;SDS011;4037;47.980;10.172;2022-12-05T05:26:22;19.10;;;13.90;;
7983;SDS011;4037;47.980;10.172;2022-12-05T05:28:49;18.93;;;14.13;;
7983;SDS011;4037;47.980;10.172;2022-12-05T05:31:15;21.50;;;13.17;;
7983;SDS011;4037;47.980;10.172;2022-12-05T05:33:41;19.90;;;13.40;;
7983;SDS011;4037;47.980;10.172;2022-12-05T05:36:09;23.33;;;15.43;;
7983;SDS011;4037;47.980;10.172;2022-12-05T05:38:35;19.60;;;12.90;;
7983;SDS011;4037;47.980;10.172;2022-12-05T05:41:02;20.33;;;12.83;;
7983;SDS011;4037;47.980;10.172;2022-12-05T05:43:28;23.93;;;14.30;;
7983;SDS011;4037;47.980;10.172;2022-12-05T05:45:54;19.73;;;13.27;;
7983;SDS011;4037;47.980;10.172;2022-12-05T05:48:20;20.60;;;13.33;;
7983;SDS011;4037;47.980;10.172;2022-12-05T05:50:46;19.40;;;12.83;;
7983;SDS011;4037;47.980;10.172;2022-12-05T05:53:12;18.53;;;12.13;;
7983;SDS011;4037;47.980;10.172;2022-12-05T05:55:41;21.90;;;13.17;;
7983;SDS011;4037;47.980;10.172;2022-12-05T05:58:07;21.53;;;14.70;;
7983;SDS011;4037;47.980;10.172;2022-12-05T06:00:33;22.53;;;13.30;;
7983;SDS011;4037;47.980;10.172;2022-12-05T06:03:00;20.23;;;13.73;;
7983;SDS011;4037;47.980;10.172;2022-12-05T06:05:26;19.50;;;12.80;;
7983;SDS011;4037;47.980;10.172;2022-12-05T06:07:52;19.80;;;13.30;;
7983;SDS011;4037;47.980;10.172;2022-12-05T06:10:18;19.60;;;12.57;;
7983;SDS011;4037;47.980;10.172;2022-12-05T06:12:44;19.40;;;12.77;;
7983;SDS011;4037;47.980;10.172;2022-12-05T06:15:10;22.13;;;12.53;;
7983;SDS011;4037;47.980;10.172;2022-12-05T06:17:36;16.03;;;11.27;;
7983;SDS011;4037;47.980;10.172;2022-12-05T06:20:03;20.70;;;11.93;;
7983;SDS011;4037;47.980;10.172;2022-12-05T06:22:29;17.47;;;11.47;;
7983;SDS011;4037;47.980;10.172;2022-12-05T06:24:55;17.37;;;11.17;;
7983;SDS011;4037;47.980;10.172;2022-12-05T06:27:21;19.07;;;12.00;;
7983;SDS011;4037;47.980;10.172;2022-12-05T06:29:47;17.37;;;11.67;;
7983;SDS011;4037;47.980;10.172;2022-12-05T06:32:14;19.13;;;12.77;;
7983;SDS011;4037;47.980;10.172;2022-12-05T06:34:40;17.93;;;11.80;;
7983;SDS011;4037;47.980;10.172;2022-12-05T06:37:06;17.30;;;11.67;;
7983;SDS011;4037;47.980;10.172;2022-12-05T06:39:32;17.13;;;10.90;;
7983;SDS011;4037;47.980;10.172;2022-12-05T06:41:58;15.67;;;10.63;;
7983;SDS011;4037;47.980;10.172;2022-12-05T06:44:25;15.07;;;10.67;;
7983;SDS011;4037;47.980;10.172;2022-12-05T06:46:52;17.97;;;11.80;;
7983;SDS011;4037;47.980;10.172;2022-12-05T06:49:19;14.90;;;9.97;;
7983;SDS011;4037;47.980;10.172;2022-12-05T06:51:45;16.27;;;10.43;;
7983;SDS011;4037;47.980;10.172;2022-12-05T06:54:11;16.30;;;9.97;;
7983;SDS011;4037;47.980;10.172;2022-12-05T06:56:38;13.93;;;10.10;;
7983;SDS011;4037;47.980;10.172;2022-12-05T06:59:04;14.73;;;10.47;;
7983;SDS011;4037;47.980;10.172;2022-12-05T07:01:30;14.10;;;9.47;;
7983;SDS011;4037;47.980;10.172;2022-12-05T07:04:19;13.50;;;8.93;;
7983;SDS011;4037;47.980;10.172;2022-12-05T07:06:47;12.90;;;9.40;;
7983;SDS011;4037;47.980;10.172;2022-12-05T07:09:14;12.60;;;9.03;;
7983;SDS011;4037;47.980;10.172;2022-12-05T07:11:40;11.83;;;8.17;;
7983;SDS011;4037;47.980;10.172;2022-12-05T07:14:06;11.67;;;8.10;;
7983;SDS011;4037;47.980;10.172;2022-12-05T07:16:33;12.17;;;7.63;;
7983;SDS011;4037;47.980;10.172;2022-12-05T07:19:00;11.30;;;7.37;;
7983;SDS011;4037;47.980;10.172;2022-12-05T07:21:26;10.73;;;7.53;;
7983;SDS011;4037;47.980;10.172;2022-12-05T07:23:52;15.43;;;9.10;;
7983;SDS011;4037;47.980;10.172;2022-12-05T07:26:20;9.67;;;7.23;;
7983;SDS011;4037;47.980;10.172;2022-12-05T07:28:47;10.63;;;8.03;;
7983;SDS011;4037;47.980;10.172;2022-12-05T07:31:14;10.30;;;7.50;;
7983;SDS011;4037;47.980;10.172;2022-12-05T07:33:40;11.33;;;7.37;;
7983;SDS011;4037;47.980;10.172;2022-12-05T07:36:07;11.47;;;8.30;;
7983;SDS011;4037;47.980;10.172;2022-12-05T07:38:34;11.20;;;7.87;;
7983;SDS011;4037;47.980;10.172;2022-12-05T07:41:07;11.50;;;7.97;;
7983;SDS011;4037;47.980;10.172;2022-12-05T07:43:34;10.07;;;7.43;;
7983;SDS011;4037;47.980;10.172;2022-12-05T07:46:03;9.90;;;7.67;;
7983;SDS011;4037;47.980;10.172;2022-12-05T07:48:30;9.83;;;7.23;;
7983;SDS011;4037;47.980;10.172;2022-12-05T07:50:59;9.93;;;7.17;;
7983;SDS011;4037;47.980;10.172;2022-12-05T07:53:26;8.70;;;6.53;;
7983;SDS011;4037;47.980;10.172;2022-12-05T07:55:52;9.07;;;6.57;;
7983;SDS011;4037;47.980;10.172;2022-12-05T07:58:18;8.73;;;6.83;;
7983;SDS011;4037;47.980;10.172;2022-12-05T08:00:44;11.50;;;7.07;;
7983;SDS011;4037;47.980;10.172;2022-12-05T08:03:10;10.60;;;7.03;;
7983;SDS011;4037;47.980;10.172;2022-12-05T08:05:36;9.30;;;6.43;;
7983;SDS011;4037;47.980;10.172;2022-12-05T08:08:03;9.13;;;6.40;;
7983;SDS011;4037;47.980;10.172;2022-12-05T08:10:29;7.90;;;5.97;;
7983;SDS011;4037;47.980;10.172;2022-12-05T08:12:55;6.87;;;5.60;;
7983;SDS011;4037;47.980;10.172;2022-12-05T08:15:21;7.83;;;5.67;;
7983;SDS011;4037;47.980;10.172;2022-12-05T08:17:47;7.73;;;5.53;;
7983;SDS011;4037;47.980;10.172;2022-12-05T08:20:13;7.43;;;6.00;;
7983;SDS011;4037;47.980;10.172;2022-12-05T08:22:39;9.07;;;5.97;;
7983;SDS011;4037;47.980;10.172;2022-12-05T08:25:05;7.90;;;5.73;;
7983;SDS011;4037;47.980;10.172;2022-12-05T08:27:31;7.87;;;6.17;;
7983;SDS011;4037;47.980;10.172;2022-12-05T08:29:57;7.73;;;5.83;;
7983;SDS011;4037;47.980;10.172;2022-12-05T08:32:23;7.30;;;5.73;;
7983;SDS011;4037;47.980;10.172;2022-12-05T08:34:51;9.63;;;6.53;;
7983;SDS011;4037;47.980;10.172;2022-12-05T08:37:17;9.70;;;6.53;;
7983;SDS011;4037;47.980;10.172;2022-12-05T08:39:43;7.33;;;5.70;;
7983;SDS011;4037;47.980;10.172;2022-12-05T08:42:09;10.67;;;7.20;;
7983;SDS011;4037;47.980;10.172;2022-12-05T08:44:35;9.67;;;7.00;;
7983;SDS011;4037;47.980;10.172;2022-12-05T08:47:01;10.60;;;6.97;;
7983;SDS011;4037;47.980;10.172;2022-12-05T08:49:27;10.10;;;6.60;;
7983;SDS011;4037;47.980;10.172;2022-12-05T08:51:53;11.53;;;7.37;;
7983;SDS011;4037;47.980;10.172;2022-12-05T08:54:19;9.67;;;7.07;;
7983;SDS011;4037;47.980;10.172;2022-12-05T08:56:45;9.30;;;7.53;;
7983;SDS011;4037;47.980;10.172;2022-12-05T08:59:11;10.10;;;7.07;;
7983;SDS011;4037;47.980;10.172;2022-12-05T09:01:37;9.07;;;6.60;;
7983;SDS011;4037;47.980;10.172;2022-12-05T09:04:03;9.80;;;6.93;;
7983;SDS011;4037;47.980;10.172;2022-12-05T09:06:30;10.20;;;7.67;;
7983;SDS011;4037;47.980;10.172;2022-12-05T09:08:58;9.83;;;6.90;;
7983;SDS011;4037;47.980;10.172;2022-12-05T09:11:25;11.33;;;6.97;;
7983;SDS011;4037;47.980;10.172;2022-12-05T09:13:53;9.10;;;6.73;;
7983;SDS011;4037;47.980;10.172;2022-12-05T09:16:21;9.53;;;7.13;;
7983;SDS011;4037;47.980;10.172;2022-12-05T09:18:47;8.97;;;7.10;;
7983;SDS011;4037;47.980;10.172;2022-12-05T09:21:14;9.43;;;6.97;;
7983;SDS011;4037;47.980;10.172;2022-12-05T09:23:41;9.87;;;6.93;;
7983;SDS011;4037;47.980;10.172;2022-12-05T09:26:08;9.07;;;6.80;;
7983;SDS011;4037;47.980;10.172;2022-12-05T09:28:35;7.23;;;5.97;;
7983;SDS011;4037;47.980;10.172;2022-12-05T09:31:03;8.07;;;5.83;;
7983;SDS011;4037;47.980;10.172;2022-12-05T09:33:30;6.83;;;5.43;;
7983;SDS011;4037;47.980;10.172;2022-12-05T09:35:56;9.30;;;5.80;;
7983;SDS011;4037;47.980;10.172;2022-12-05T09:38:22;7.77;;;5.40;;
7983;SDS011;4037;47.980;10.172;2022-12-05T09:40:51;7.33;;;4.97;;
7983;SDS011;4037;47.980;10.172;2022-12-05T09:43:26;6.40;;;5.50;;
7983;SDS011;4037;47.980;10.172;2022-12-05T09:45:59;8.87;;;6.00;;
7983;SDS011;4037;47.980;10.172;2022-12-05T09:48:27;6.37;;;4.77;;
7983;SDS011;4037;47.980;10.172;2022-12-05T09:50:58;10.97;;;6.83;;
7983;SDS011;4037;47.980;10.172;2022-12-05T09:53:29;6.47;;;4.30;;
7983;SDS011;4037;47.980;10.172;2022-12-05T09:56:03;5.10;;;4.30;;
7983;SDS011;4037;47.980;10.172;2022-12-05T09:58:46;4.27;;;3.23;;
7983;SDS011;4037;47.980;10.172;2022-12-05T10:03:42;6.23;;;3.97;;
7983;SDS011;4037;47.980;10.172;2022-12-05T10:08:54;5.37;;;4.17;;
7983;SDS011;4037;47.980;10.172;2022-12-05T10:14:18;4.47;;;3.23;;
7983;SDS011;4037;47.980;10.172;2022-12-05T10:16:51;4.10;;;3.30;;
7983;SDS011;4037;47.980;10.172;2022-12-05T10:19:30;4.77;;;3.50;;
7983;SDS011;4037;47.980;10.172;2022-12-05T10:22:09;6.97;;;3.93;;
7983;SDS011;4037;47.980;10.172;2022-12-05T10:24:46;4.93;;;3.53;;
7983;SDS011;4037;47.980;10.172;2022-12-05T10:27:18;4.20;;;3.80;;
7983;SDS011;4037;47.980;10.172;2022-12-05T10:29:46;3.97;;;3.27;;
7983;SDS011;4037;47.980;10.172;2022-12-05T10:32:17;3.73;;;3.07;;
7983;SDS011;4037;47.980;10.172;2022-12-05T10:34:44;3.73;;;3.27;;
7983;SDS011;4037;47.980;10.172;2022-12-05T10:37:19;3.50;;;3.10;;
7983;SDS011;4037;47.980;10.172;2022-12-05T10:39:47;3.20;;;2.90;;
7983;SDS011;4037;47.980;10.172;2022-12-05T10:42:19;4.77;;;3.67;;
7983;SDS011;4037;47.980;10.172;2022-12-05T10:44:46;3.83;;;3.30;;
7983;SDS011;4037;47.980;10.172;2022-12-05T10:47:13;3.60;;;2.97;;
7983;SDS011;4037;47.980;10.172;2022-12-05T10:49:39;3.70;;;2.90;;
7983;SDS011;4037;47.980;10.172;2022-12-05T10:52:05;3.33;;;2.97;;
7983;SDS011;4037;47.980;10.172;2022-12-05T10:54:33;3.87;;;2.90;;
7983;SDS011;4037;47.980;10.172;2022-12-05T10:57:01;3.03;;;2.73;;
7983;SDS011;4037;47.980;10.172;2022-12-05T10:59:45;2.50;;;2.30;;
7983;SDS011;4037;47.980;10.172;2022-12-05T11:02:22;3.50;;;2.40;;
7983;SDS011;4037;47.980;10.172;2022-12-05T11:04:49;2.47;;;2.27;;
7983;SDS011;4037;47.980;10.172;2022-12-05T11:10:01;3.07;;;2.77;;
7983;SDS011;4037;47.980;10.172;2022-12-05T11:12:28;2.77;;;2.50;;
7983;SDS011;4037;47.980;10.172;2022-12-05T11:17:34;2.40;;;2.20;;
7983;SDS011;4037;47.980;10.172;2022-12-05T11:20:02;2.47;;;2.27;;
7983;SDS011;4037;47.980;10.172;2022-12-05T11:22:30;2.20;;;2.00;;
7983;SDS011;4037;47.980;10.172;2022-12-05T11:24:56;3.37;;;2.60;;
7983;SDS011;4037;47.980;10.172;2022-12-05T11:27:30;2.57;;;2.37;;
7983;SDS011;4037;47.980;10.172;2022-12-05T11:32:26;2.57;;;2.37;;
7983;SDS011;4037;47.980;10.172;2022-12-05T11:37:29;2.87;;;2.67;;
7983;SDS011;4037;47.980;10.172;2022-12-05T11:39:56;2.47;;;2.30;;
7983;SDS011;4037;47.980;10.172;2022-12-05T11:47:21;3.97;;;3.00;;
7983;SDS011;4037;47.980;10.172;2022-12-05T11:52:32;3.00;;;2.80;;
7983;SDS011;4037;47.980;10.172;2022-12-05T12:05:37;2.60;;;2.40;;
7983;SDS011;4037;47.980;10.172;2022-12-05T12:08:24;2.07;;;1.87;;
7983;SDS011;4037;47.980;10.172;2022-12-05T12:13:38;2.17;;;1.80;;
7983;SDS011;4037;47.980;10.172;2022-12-05T12:16:09;2.40;;;1.97;;
7983;SDS011;4037;47.980;10.172;2022-12-05T12:24:15;1.60;;;1.50;;
7983;SDS011;4037;47.980;10.172;2022-12-05T12:37:02;2.23;;;2.00;;
7983;SDS011;4037;47.980;10.172;2022-12-05T12:42:21;2.00;;;1.90;;
7983;SDS011;4037;47.980;10.172;2022-12-05T12:45:07;1.90;;;1.40;;
7983;SDS011;4037;47.980;10.172;2022-12-05T12:52:45;1.50;;;1.40;;
7983;SDS011;4037;47.980;10.172;2022-12-05T12:55:24;1.73;;;1.63;;
7983;SDS011;4037;47.980;10.172;2022-12-05T12:57:56;1.63;;;1.53;;
7983;SDS011;4037;47.980;10.172;2022-12-05T13:03:21;1.57;;;1.47;;
7983;SDS011;4037;47.980;10.172;2022-12-05T13:06:00;1.77;;;1.67;;
7983;SDS011;4037;47.980;10.172;2022-12-05T13:08:31;1.60;;;1.50;;
7983;SDS011;4037;47.980;10.172;2022-12-05T13:10:58;2.10;;;1.90;;
7983;SDS011;4037;47.980;10.172;2022-12-05T13:13:33;1.77;;;1.67;;
7983;SDS011;4037;47.980;10.172;2022-12-05T13:16:01;1.83;;;1.40;;
7983;SDS011;4037;47.980;10.172;2022-12-05T13:18:30;2.70;;;1.70;;
7983;SDS011;4037;47.980;10.172;2022-12-05T13:20:57;1.40;;;1.30;;
7983;SDS011;4037;47.980;10.172;2022-12-05T13:23:24;1.80;;;1.57;;
7983;SDS011;4037;47.980;10.172;2022-12-05T13:25:52;1.57;;;1.47;;
7983;SDS011;4037;47.980;10.172;2022-12-05T13:30:51;1.87;;;1.60;;
7983;SDS011;4037;47.980;10.172;2022-12-05T13:33:27;1.60;;;1.50;;
7983;SDS011;4037;47.980;10.172;2022-12-05T13:35:55;1.63;;;1.53;;
7983;SDS011;4037;47.980;10.172;2022-12-05T13:38:40;3.23;;;1.60;;
7983;SDS011;4037;47.980;10.172;2022-12-05T13:44:36;2.07;;;1.80;;
7983;SDS011;4037;47.980;10.172;2022-12-05T13:47:04;1.87;;;1.60;;
7983;SDS011;4037;47.980;10.172;2022-12-05T13:49:35;2.97;;;2.07;;
7983;SDS011;4037;47.980;10.172;2022-12-05T13:52:07;1.60;;;1.50;;
7983;SDS011;4037;47.980;10.172;2022-12-05T13:54:40;1.93;;;1.77;;
7983;SDS011;4037;47.980;10.172;2022-12-05T13:57:13;2.30;;;2.10;;
7983;SDS011;4037;47.980;10.172;2022-12-05T14:05:50;2.93;;;2.27;;
7983;SDS011;4037;47.980;10.172;2022-12-05T14:07:56;3.63;;;2.77;;
7983;SDS011;4037;47.980;10.172;2022-12-05T14:13:46;6.13;;;2.80;;
7983;SDS011;4037;47.980;10.172;2022-12-05T14:15:51;3.20;;;2.90;;
7983;SDS011;4037;47.980;10.172;2022-12-05T14:18:30;2.43;;;2.23;;
7983;SDS011;4037;47.980;10.172;2022-12-05T14:28:55;2.97;;;2.67;;
7983;SDS011;4037;47.980;10.172;2022-12-05T14:36:34;2.17;;;1.97;;
7983;SDS011;4037;47.980;10.172;2022-12-05T14:39:18;2.10;;;1.70;;
7983;SDS011;4037;47.980;10.172;2022-12-05T14:41:44;2.47;;;2.27;;
7983;SDS011;4037;47.980;10.172;2022-12-05T14:44:17;3.03;;;2.47;;
7983;SDS011;4037;47.980;10.172;2022-12-05T14:46:44;2.23;;;1.90;;
7983;SDS011;4037;47.980;10.172;2022-12-05T14:51:55;2.53;;;2.13;;
7983;SDS011;4037;47.980;10.172;2022-12-05T14:54:22;2.03;;;1.80;;
7983;SDS011;4037;47.980;10.172;2022-12-05T14:56:49;2.07;;;1.87;;
7983;SDS011;4037;47.980;10.172;2022-12-05T14:59:24;2.60;;;2.30;;
7983;SDS011;4037;47.980;10.172;2022-12-05T15:01:55;3.80;;;2.80;;
7983;SDS011;4037;47.980;10.172;2022-12-05T15:07:34;2.97;;;2.70;;
7983;SDS011;4037;47.980;10.172;2022-12-05T15:12:37;3.87;;;2.67;;
7983;SDS011;4037;47.980;10.172;2022-12-05T15:15:18;3.27;;;2.97;;
7983;SDS011;4037;47.980;10.172;2022-12-05T15:17:57;3.80;;;3.03;;
7983;SDS011;4037;47.980;10.172;2022-12-05T15:20:32;6.10;;;3.20;;
7983;SDS011;4037;47.980;10.172;2022-12-05T15:22:59;2.83;;;2.63;;
7983;SDS011;4037;47.980;10.172;2022-12-05T15:25:29;3.03;;;2.83;;
7983;SDS011;4037;47.980;10.172;2022-12-05T15:28:05;3.53;;;3.00;;
7983;SDS011;4037;47.980;10.172;2022-12-05T15:30:32;3.83;;;3.07;;
7983;SDS011;4037;47.980;10.172;2022-12-05T15:33:00;3.00;;;2.73;;
7983;SDS011;4037;47.980;10.172;2022-12-05T15:35:27;3.97;;;2.47;;
7983;SDS011;4037;47.980;10.172;2022-12-05T15:37:57;3.40;;;2.60;;
7983;SDS011;4037;47.980;10.172;2022-12-05T15:40:24;2.70;;;2.50;;
7983;SDS011;4037;47.980;10.172;2022-12-05T15:42:54;3.50;;;3.20;;
7983;SDS011;4037;47.980;10.172;2022-12-05T15:45:25;5.27;;;3.60;;
7983;SDS011;4037;47.980;10.172;2022-12-05T15:47:55;4.63;;;3.17;;
7983;SDS011;4037;47.980;10.172;2022-12-05T15:52:49;3.60;;;3.30;;
7983;SDS011;4037;47.980;10.172;2022-12-05T15:58:33;4.10;;;3.70;;
7983;SDS011;4037;47.980;10.172;2022-12-05T16:00:40;3.63;;;3.33;;
7983;SDS011;4037;47.980;10.172;2022-12-05T16:03:11;3.90;;;3.50;;
7983;SDS011;4037;47.980;10.172;2022-12-05T16:05:47;3.90;;;3.50;;
7983;SDS011;4037;47.980;10.172;2022-12-05T16:08:16;4.73;;;4.23;;
7983;SDS011;4037;47.980;10.172;2022-12-05T16:10:42;6.50;;;3.70;;
7983;SDS011;4037;47.980;10.172;2022-12-05T16:13:12;4.87;;;3.70;;
7983;SDS011;4037;47.980;10.172;2022-12-05T16:15:44;4.17;;;3.77;;
7983;SDS011;4037;47.980;10.172;2022-12-05T16:18:30;4.77;;;3.67;;
7983;SDS011;4037;47.980;10.172;2022-12-05T16:20:56;4.43;;;4.03;;
7983;SDS011;4037;47.980;10.172;2022-12-05T16:23:29;4.77;;;3.37;;
7983;SDS011;4037;47.980;10.172;2022-12-05T16:26:09;4.00;;;3.60;;
7983;SDS011;4037;47.980;10.172;2022-12-05T16:28:35;19.23;;;13.60;;
7983;SDS011;4037;47.980;10.172;2022-12-05T16:31:02;11.53;;;8.80;;
7983;SDS011;4037;47.980;10.172;2022-12-05T16:33:29;14.80;;;9.87;;
7983;SDS011;4037;47.980;10.172;2022-12-05T16:35:55;14.30;;;10.90;;
7983;SDS011;4037;47.980;10.172;2022-12-05T16:38:31;7.63;;;5.97;;
7983;SDS011;4037;47.980;10.172;2022-12-05T16:40:58;6.57;;;5.80;;
7983;SDS011;4037;47.980;10.172;2022-12-05T16:48:28;4.33;;;3.93;;
7983;SDS011;4037;47.980;10.172;2022-12-05T16:53:48;5.07;;;4.57;;
7983;SDS011;4037;47.980;10.172;2022-12-05T16:56:15;5.07;;;4.57;;
7983;SDS011;4037;47.980;10.172;2022-12-05T16:58:43;5.30;;;4.80;;
7983;SDS011;4037;47.980;10.172;2022-12-05T17:01:11;5.13;;;4.13;;
7983;SDS011;4037;47.980;10.172;2022-12-05T17:03:39;4.93;;;4.20;;
7983;SDS011;4037;47.980;10.172;2022-12-05T17:06:05;6.03;;;5.23;;
7983;SDS011;4037;47.980;10.172;2022-12-05T17:08:31;7.07;;;5.63;;
7983;SDS011;4037;47.980;10.172;2022-12-05T17:10:57;8.13;;;7.20;;
7983;SDS011;4037;47.980;10.172;2022-12-05T17:13:25;7.23;;;6.47;;
7983;SDS011;4037;47.980;10.172;2022-12-05T17:15:51;8.73;;;7.83;;
7983;SDS011;4037;47.980;10.172;2022-12-05T17:18:18;8.87;;;7.50;;
7983;SDS011;4037;47.980;10.172;2022-12-05T17:20:45;7.03;;;5.20;;
7983;SDS011;4037;47.980;10.172;2022-12-05T17:23:13;8.07;;;5.30;;
7983;SDS011;4037;47.980;10.172;2022-12-05T17:25:41;5.87;;;5.27;;
7983;SDS011;4037;47.980;10.172;2022-12-05T17:28:08;4.93;;;4.43;;
7983;SDS011;4037;47.980;10.172;2022-12-05T17:30:34;5.27;;;4.73;;
7983;SDS011;4037;47.980;10.172;2022-12-05T17:33:01;4.60;;;4.20;;
7983;SDS011;4037;47.980;10.172;2022-12-05T17:35:28;5.83;;;4.97;;